map of UEL home
UEL - Airport
Location
City:  Quelimane, Zambézia, Mozambique
Name:Quelimane Airport
ICAO:FQQL
IATA:UEL

Details
Type:Airport (Aerodrome, Airfield)
Use:Public/Civil
Latitude:17°51'20"S (-17.855499)
Longitude:36°52'09"E (36.869106)
Datum:WGS 1984
Elevation:36 ft (11 m)
Variation:10.45°W (WMM2015 magnetic declination)
-0.05° annual change
Runways:2
Longest:5905 × 148 ft (1800 × 45 m), paved

Time
Time Zone:UTC+2
Local Time:

Weather
METAR:FQQL 221200Z 17006KT 100V220 9999 -DZ SCT010 BKN020 BKN090 20/19 Q1024

Related Locations
Nearby:
Farthest:ITO: 11657 mi / 18760 km
Hilo [Hilo Intl], Hawaii, HI, US

Find:

   beyond  
but within

Other Information
Maps:
NOTAMs:
Links:
Sources:

  
  • flag of Mozambique
  

Sectional Chart

Flight Planning
at skyvector.com

Satellite Image

Google Maps Satellite view

 

Copyright © 2004-2018 Karl L. Swartz. All rights reserved.
The Great Circle Mapper name and logo are trademarks of the Great Circle Mapper.
All other trademarks mentioned herein belong to their respective owners.
Please see credits for attibutions and further copyright information.

  Follow gcmap on Facebook Follow gcmap on Twitter Follow gcmap on Google+ GCmap on LinkedIn

hCard Microformat

Geo Microformat